createdAt,value
2023-03-27T00:02:19.021Z,1.77
2023-03-27T00:04:46.815Z,1.40
2023-03-27T00:07:14.511Z,1.40
2023-03-27T00:09:44.311Z,1.05
2023-03-27T00:12:13.306Z,1.05
2023-03-27T00:14:41.404Z,1.08
2023-03-27T00:17:09.302Z,1.38
2023-03-27T00:19:37.189Z,1.45
2023-03-27T00:22:05.344Z,0.88
2023-03-27T00:24:34.447Z,1.23
2023-03-27T00:27:02.090Z,1.60
2023-03-27T00:29:31.053Z,0.93
2023-03-27T00:31:58.695Z,1.38
2023-03-27T00:34:26.441Z,1.15
2023-03-27T00:36:54.067Z,1.08
2023-03-27T00:39:21.766Z,1.20
2023-03-27T00:41:49.619Z,0.60
2023-03-27T00:44:21.989Z,0.93
2023-03-27T00:46:51.151Z,1.23
2023-03-27T00:49:19.394Z,0.70
2023-03-27T00:51:48.086Z,1.10
2023-03-27T00:54:17.049Z,1.10
2023-03-27T00:56:45.207Z,1.35
2023-03-27T00:59:14.812Z,1.95
2023-03-27T01:01:43.617Z,0.80
2023-03-27T01:04:12.981Z,1.25
2023-03-27T01:06:42.364Z,0.98
2023-03-27T01:09:10.417Z,1.58
2023-03-27T01:11:53.082Z,1.20
2023-03-27T01:14:26.392Z,0.77
2023-03-27T01:17:00.406Z,1.05
2023-03-27T01:19:52.566Z,1.10
2023-03-27T01:22:39.865Z,1.05
2023-03-27T01:25:22.526Z,0.95
2023-03-27T01:28:09.034Z,1.10
2023-03-27T01:30:39.657Z,0.70
2023-03-27T01:33:20.456Z,0.82
2023-03-27T01:36:02.115Z,1.23
2023-03-27T01:38:48.993Z,1.00
2023-03-27T01:41:21.510Z,0.73
2023-03-27T01:43:53.726Z,0.52
2023-03-27T01:46:24.139Z,0.73
2023-03-27T01:48:53.359Z,1.13
2023-03-27T01:51:24.172Z,0.80
2023-03-27T01:53:53.665Z,0.85
2023-03-27T01:56:26.591Z,1.27
2023-03-27T01:58:57.382Z,1.13
2023-03-27T02:01:28.238Z,0.93
2023-03-27T02:03:58.409Z,1.38
2023-03-27T02:06:28.928Z,1.27
2023-03-27T02:08:59.470Z,0.70
2023-03-27T02:11:30.466Z,0.52
2023-03-27T02:14:00.197Z,1.85
2023-03-27T02:16:33.721Z,0.80
2023-03-27T02:19:03.180Z,1.08
2023-03-27T02:21:32.407Z,1.05
2023-03-27T02:24:01.987Z,0.85
2023-03-27T02:26:31.433Z,1.10
2023-03-27T02:29:07.849Z,0.57
2023-03-27T02:31:41.413Z,1.08
2023-03-27T02:34:18.485Z,0.90
2023-03-27T02:36:53.472Z,1.88
2023-03-27T02:39:25.409Z,0.98
2023-03-27T02:41:58.754Z,1.17
2023-03-27T02:44:31.203Z,1.33
2023-03-27T02:47:01.090Z,0.77
2023-03-27T02:49:32.529Z,0.80
2023-03-27T02:52:02.895Z,1.23
2023-03-27T02:54:33.465Z,0.98
2023-03-27T02:57:04.193Z,1.55
2023-03-27T02:59:35.554Z,1.17
2023-03-27T03:02:04.341Z,1.23
2023-03-27T03:04:35.036Z,1.02
2023-03-27T03:07:04.470Z,1.25
2023-03-27T03:09:32.207Z,0.82
2023-03-27T03:12:01.892Z,0.93
2023-03-27T03:14:32.021Z,0.82
2023-03-27T03:16:59.707Z,1.27
2023-03-27T03:19:28.657Z,1.10
2023-03-27T03:21:56.452Z,1.15
2023-03-27T03:24:24.098Z,1.40
2023-03-27T03:26:51.948Z,1.80
2023-03-27T03:29:21.209Z,1.67
2023-03-27T03:31:49.732Z,0.80
2023-03-27T03:34:18.383Z,1.65
2023-03-27T03:36:49.437Z,1.65
2023-03-27T03:39:18.307Z,1.80
2023-03-27T03:41:46.048Z,3.15
2023-03-27T03:44:13.823Z,1.45
2023-03-27T03:46:42.839Z,1.30
2023-03-27T03:49:10.902Z,1.38
2023-03-27T03:51:38.597Z,1.40
2023-03-27T03:54:07.084Z,1.75
2023-03-27T03:56:34.887Z,1.10
2023-03-27T03:59:02.924Z,1.58
2023-03-27T04:01:30.551Z,1.48
2023-03-27T04:03:59.544Z,1.10
2023-03-27T04:06:27.320Z,1.40
2023-03-27T04:08:55.096Z,1.20
2023-03-27T04:11:22.777Z,1.27
2023-03-27T04:13:51.075Z,1.27
2023-03-27T04:16:18.699Z,1.40
2023-03-27T04:18:50.704Z,1.02
2023-03-27T04:21:19.948Z,1.40
2023-03-27T04:23:48.699Z,1.20
2023-03-27T04:26:16.902Z,1.65
2023-03-27T04:28:44.622Z,1.20
2023-03-27T04:31:14.292Z,1.35
2023-03-27T04:33:46.880Z,1.17
2023-03-27T04:36:15.785Z,0.73
2023-03-27T04:38:46.279Z,0.85
2023-03-27T04:41:13.926Z,0.98
2023-03-27T04:43:41.863Z,1.00
2023-03-27T04:46:10.229Z,1.25
2023-03-27T04:48:39.269Z,0.90
2023-03-27T04:51:08.333Z,1.42
2023-03-27T04:53:37.736Z,2.20
2023-03-27T04:56:07.456Z,1.13
2023-03-27T04:58:37.319Z,1.27
2023-03-27T05:01:06.678Z,1.35
2023-03-27T05:03:35.145Z,1.30
2023-03-27T05:06:04.607Z,1.40
2023-03-27T05:08:32.745Z,1.27
2023-03-27T05:11:00.457Z,1.15
2023-03-27T05:13:29.528Z,1.10
2023-03-27T05:15:59.316Z,1.30
2023-03-27T05:18:28.414Z,1.80
2023-03-27T05:20:57.983Z,1.55
2023-03-27T05:23:26.065Z,1.08
2023-03-27T05:26:00.152Z,1.20
2023-03-27T05:28:30.302Z,1.17
2023-03-27T05:31:02.069Z,1.73
2023-03-27T05:33:32.301Z,2.15
2023-03-27T05:36:00.041Z,1.88
2023-03-27T05:38:36.112Z,2.33
2023-03-27T05:41:06.333Z,1.63
2023-03-27T05:43:39.008Z,2.15
2023-03-27T05:46:06.845Z,1.27
2023-03-27T05:48:34.684Z,2.67
2023-03-27T05:51:02.558Z,1.65
2023-03-27T05:53:30.243Z,1.92
2023-03-27T05:56:02.345Z,2.03
2023-03-27T05:58:30.413Z,1.88
2023-03-27T06:01:00.693Z,1.65
2023-03-27T06:03:30.282Z,2.55
2023-03-27T06:05:59.993Z,1.58
2023-03-27T06:08:28.649Z,2.25
2023-03-27T06:10:56.419Z,1.80
2023-03-27T06:13:24.381Z,1.80
2023-03-27T06:15:54.401Z,1.95
2023-03-27T06:18:23.557Z,1.70
2023-03-27T06:20:51.904Z,1.88
2023-03-27T06:23:19.541Z,1.27
2023-03-27T06:25:53.212Z,1.70
2023-03-27T06:28:21.020Z,2.03
2023-03-27T06:30:50.026Z,2.53
2023-03-27T06:33:17.797Z,1.73
2023-03-27T06:35:53.172Z,1.60
2023-03-27T06:38:21.221Z,1.75
2023-03-27T06:40:49.508Z,1.90
2023-03-27T06:43:19.155Z,1.65
2023-03-27T06:45:49.195Z,1.65
2023-03-27T06:48:21.442Z,2.45
2023-03-27T06:50:52.387Z,1.75
2023-03-27T06:55:51.572Z,1.35
2023-03-27T06:58:19.753Z,1.50
2023-03-27T07:00:48.962Z,1.23
2023-03-27T07:03:17.923Z,1.50
2023-03-27T07:05:46.062Z,1.55
2023-03-27T07:10:56.303Z,0.98
2023-03-27T07:13:35.870Z,1.20
2023-03-27T07:16:03.921Z,1.30
2023-03-27T07:18:32.304Z,0.73
2023-03-27T07:21:00.322Z,0.82
2023-03-27T07:23:30.142Z,1.75
2023-03-27T07:25:58.629Z,0.93
2023-03-27T07:28:26.620Z,0.88
2023-03-27T07:30:54.463Z,1.00
2023-03-27T07:33:22.424Z,1.10
2023-03-27T07:35:50.146Z,1.38
2023-03-27T07:38:18.344Z,0.70
2023-03-27T07:40:50.396Z,0.82
2023-03-27T07:43:18.162Z,0.60
2023-03-27T07:45:45.985Z,0.90
2023-03-27T07:48:16.112Z,0.82
2023-03-27T07:50:45.118Z,0.63
2023-03-27T07:53:33.774Z,0.65
2023-03-27T07:56:02.513Z,1.13
2023-03-27T07:58:31.253Z,1.25
2023-03-27T08:01:02.304Z,0.90
2023-03-27T08:03:31.458Z,1.20
2023-03-27T08:06:00.879Z,1.13
2023-03-27T08:08:29.113Z,0.90
2023-03-27T08:10:57.788Z,1.50
2023-03-27T08:13:27.204Z,1.60
2023-03-27T08:16:02.803Z,1.30
2023-03-27T08:18:30.433Z,1.42
2023-03-27T08:20:58.479Z,1.30
2023-03-27T08:23:27.223Z,1.08
2023-03-27T08:25:55.511Z,1.45
2023-03-27T08:28:23.327Z,1.00
2023-03-27T08:30:52.611Z,1.63
2023-03-27T08:33:30.464Z,1.10
2023-03-27T08:35:58.473Z,1.33
2023-03-27T08:38:29.282Z,1.15
2023-03-27T08:40:59.727Z,0.73
2023-03-27T08:43:31.547Z,1.77
2023-03-27T08:46:02.359Z,0.90
2023-03-27T08:48:32.871Z,0.90
2023-03-27T08:51:03.716Z,0.80
2023-03-27T08:53:34.106Z,1.00
2023-03-27T08:56:03.302Z,1.17
2023-03-27T08:58:33.025Z,1.02
2023-03-27T09:01:05.355Z,1.27
2023-03-27T09:03:35.822Z,1.00
2023-03-27T09:06:06.569Z,1.02
2023-03-27T09:08:42.221Z,0.77
2023-03-27T09:11:18.521Z,1.35
2023-03-27T09:13:48.322Z,2.70
2023-03-27T09:16:21.461Z,0.82
2023-03-27T09:18:52.880Z,0.65
2023-03-27T09:21:24.995Z,0.70
2023-03-27T09:23:55.248Z,0.57
2023-03-27T09:26:24.758Z,1.20
2023-03-27T09:28:55.109Z,1.30
2023-03-27T09:31:28.584Z,0.80
2023-03-27T09:33:58.464Z,1.60
2023-03-27T09:36:26.236Z,0.93
2023-03-27T09:38:58.722Z,1.25
2023-03-27T09:41:28.489Z,0.95
2023-03-27T09:43:59.892Z,1.63
2023-03-27T09:46:29.658Z,1.05
2023-03-27T09:48:59.148Z,1.85
2023-03-27T09:51:36.510Z,1.02
2023-03-27T09:54:04.700Z,0.82
2023-03-27T09:56:32.975Z,1.10
2023-03-27T09:59:01.891Z,1.10
2023-03-27T10:01:34.859Z,1.33
2023-03-27T10:04:11.693Z,0.95
2023-03-27T10:06:40.490Z,1.10
2023-03-27T10:09:14.217Z,1.15
2023-03-27T10:11:42.131Z,1.45
2023-03-27T10:14:13.313Z,0.70
2023-03-27T10:16:42.614Z,1.75
2023-03-27T10:19:20.952Z,0.60
2023-03-27T10:21:48.647Z,1.33
2023-03-27T10:24:20.812Z,2.75
2023-03-27T10:26:49.105Z,1.52
2023-03-27T10:29:24.516Z,1.58
2023-03-27T10:34:33.409Z,1.58
2023-03-27T10:37:03.267Z,1.15
2023-03-27T10:39:34.117Z,2.45
2023-03-27T10:42:03.904Z,1.80
2023-03-27T10:44:31.597Z,1.30
2023-03-27T10:46:59.346Z,1.40
2023-03-27T10:49:31.702Z,1.88
2023-03-27T10:52:06.640Z,1.30
2023-03-27T10:54:36.808Z,0.80
2023-03-27T10:57:07.096Z,0.80
2023-03-27T10:59:42.084Z,1.90
2023-03-27T11:02:16.022Z,1.42
2023-03-27T11:04:46.524Z,1.98
2023-03-27T11:07:20.876Z,0.93
2023-03-27T11:10:04.002Z,1.20
2023-03-27T11:12:33.240Z,1.15
2023-03-27T11:15:04.366Z,1.38
2023-03-27T11:17:37.159Z,1.20
2023-03-27T11:20:08.540Z,1.23
2023-03-27T11:22:39.694Z,0.65
2023-03-27T11:25:10.975Z,0.80
2023-03-27T11:27:43.146Z,0.90
2023-03-27T11:30:24.835Z,0.80
2023-03-27T11:32:56.470Z,1.30
2023-03-27T11:35:40.583Z,2.25
2023-03-27T11:38:16.006Z,1.48
2023-03-27T11:43:12.238Z,1.10
2023-03-27T11:45:43.172Z,0.93
2023-03-27T11:48:17.196Z,1.17
2023-03-27T11:50:49.260Z,1.20
2023-03-27T11:53:29.940Z,1.65
2023-03-27T11:56:03.111Z,1.15
2023-03-27T11:58:33.426Z,0.90
2023-03-27T12:01:07.799Z,1.05
2023-03-27T12:03:48.932Z,3.13
2023-03-27T12:06:23.317Z,1.58
2023-03-27T12:08:58.786Z,1.77
2023-03-27T12:11:27.513Z,0.80
2023-03-27T12:14:03.399Z,1.30
2023-03-27T12:16:40.784Z,1.48
2023-03-27T12:19:27.593Z,1.33
2023-03-27T12:22:05.257Z,1.02
2023-03-27T12:24:57.049Z,0.90
2023-03-27T12:27:30.237Z,1.30
2023-03-27T12:30:02.496Z,1.10
2023-03-27T12:32:43.520Z,1.25
2023-03-27T12:35:12.495Z,1.27
2023-03-27T12:37:42.183Z,1.33
2023-03-27T12:40:25.746Z,1.27
2023-03-27T12:42:54.190Z,1.48
2023-03-27T12:45:23.839Z,1.25
2023-03-27T12:48:11.136Z,1.38
2023-03-27T12:50:42.924Z,1.17
2023-03-27T12:53:20.141Z,1.40
2023-03-27T12:55:50.019Z,1.77
2023-03-27T12:58:31.704Z,2.45
2023-03-27T13:01:00.866Z,1.10
2023-03-27T13:03:39.923Z,1.50
2023-03-27T13:06:14.784Z,1.65
2023-03-27T13:08:50.313Z,1.17
2023-03-27T13:11:27.189Z,1.67
2023-03-27T13:14:24.951Z,1.08
2023-03-27T13:17:16.603Z,0.90
2023-03-27T13:19:52.934Z,1.52
2023-03-27T13:22:26.207Z,1.27
2023-03-27T13:25:11.808Z,1.00
2023-03-27T13:27:48.882Z,1.30
2023-03-27T13:30:35.278Z,1.10
2023-03-27T13:33:16.493Z,0.88
2023-03-27T13:35:53.487Z,1.33
2023-03-27T13:38:36.326Z,1.20
2023-03-27T13:41:18.813Z,1.40
2023-03-27T13:43:47.937Z,1.58
2023-03-27T13:46:19.208Z,1.10
2023-03-27T13:48:58.764Z,1.10
2023-03-27T13:51:33.414Z,1.23
2023-03-27T13:54:12.940Z,0.88
2023-03-27T13:56:46.224Z,1.00
2023-03-27T13:59:30.623Z,1.23
2023-03-27T14:02:05.581Z,1.08
2023-03-27T14:04:40.895Z,1.15
2023-03-27T14:07:23.866Z,1.20
2023-03-27T14:09:56.659Z,0.80
2023-03-27T14:12:31.385Z,1.27
2023-03-27T14:15:21.167Z,1.15
2023-03-27T14:17:57.087Z,1.10
2023-03-27T14:20:25.986Z,1.05
2023-03-27T14:22:56.922Z,0.98
2023-03-27T14:25:43.881Z,0.88
2023-03-27T14:28:26.967Z,0.75
2023-03-27T14:30:56.680Z,0.80
2023-03-27T14:33:24.406Z,0.70
2023-03-27T14:35:54.672Z,0.85
2023-03-27T14:38:24.934Z,0.85
2023-03-27T14:40:56.506Z,1.77
2023-03-27T14:43:24.191Z,1.10
2023-03-27T14:45:52.877Z,1.33
2023-03-27T14:48:23.838Z,0.88
2023-03-27T14:50:53.290Z,0.98
2023-03-27T14:53:26.153Z,1.50
2023-03-27T14:55:58.175Z,1.35
2023-03-27T14:58:26.385Z,0.90
2023-03-27T15:00:56.285Z,1.33
2023-03-27T15:03:26.685Z,1.08
2023-03-27T15:05:58.867Z,1.50
2023-03-27T15:08:28.720Z,1.25
2023-03-27T15:10:56.758Z,1.10
2023-03-27T15:13:25.492Z,1.10
2023-03-27T15:15:55.939Z,1.40
2023-03-27T15:18:28.293Z,0.70
2023-03-27T15:20:57.867Z,1.00
2023-03-27T15:23:28.481Z,1.42
2023-03-27T15:26:11.195Z,1.20
2023-03-27T15:28:41.572Z,0.70
2023-03-27T15:31:10.093Z,0.82
2023-03-27T15:33:42.683Z,0.90
2023-03-27T15:36:21.386Z,1.02
2023-03-27T15:38:49.657Z,0.80
2023-03-27T15:41:36.364Z,1.92
2023-03-27T15:44:05.434Z,1.08
2023-03-27T15:46:34.762Z,1.00
2023-03-27T15:49:19.464Z,0.95
2023-03-27T15:51:47.112Z,1.35
2023-03-27T15:54:25.679Z,1.73
2023-03-27T15:56:53.657Z,1.10
2023-03-27T15:59:52.812Z,1.00
2023-03-27T16:02:22.148Z,0.90
2023-03-27T16:04:53.599Z,0.90
2023-03-27T16:07:22.406Z,0.82
2023-03-27T16:09:51.672Z,0.98
2023-03-27T16:12:22.475Z,1.73
2023-03-27T16:14:54.559Z,1.15
2023-03-27T16:17:25.106Z,0.88
2023-03-27T16:19:56.020Z,1.05
2023-03-27T16:22:24.514Z,0.82
2023-03-27T16:24:52.455Z,1.27
2023-03-27T16:27:22.867Z,0.73
2023-03-27T16:29:50.955Z,0.75
2023-03-27T16:32:19.018Z,0.93
2023-03-27T16:34:48.078Z,0.95
2023-03-27T16:37:17.352Z,1.00
2023-03-27T16:39:45.025Z,1.10
2023-03-27T16:42:14.099Z,1.15
2023-03-27T16:44:41.843Z,0.93
2023-03-27T16:47:09.811Z,1.25
2023-03-27T16:49:37.432Z,1.15
2023-03-27T16:52:05.381Z,0.60
2023-03-27T16:54:34.520Z,0.95
2023-03-27T16:57:02.708Z,1.02
2023-03-27T16:59:30.416Z,1.40
2023-03-27T17:01:58.203Z,0.70
2023-03-27T17:04:26.142Z,1.13
2023-03-27T17:06:53.804Z,2.45
2023-03-27T17:09:22.692Z,1.05
2023-03-27T17:11:51.798Z,0.80
2023-03-27T17:14:19.610Z,1.40
2023-03-27T17:16:48.818Z,0.98
2023-03-27T17:19:16.676Z,1.15
2023-03-27T17:21:44.493Z,1.42
2023-03-27T17:24:14.593Z,1.27
2023-03-27T17:26:42.205Z,1.30
2023-03-27T17:29:11.378Z,1.00
2023-03-27T17:31:39.418Z,2.22
2023-03-27T17:34:08.544Z,1.20
2023-03-27T17:36:43.187Z,1.13
2023-03-27T17:39:12.836Z,1.08
2023-03-27T17:41:40.589Z,1.67
2023-03-27T17:44:08.449Z,1.75
2023-03-27T17:46:37.541Z,1.30
2023-03-27T17:49:05.425Z,1.33
2023-03-27T17:51:34.238Z,1.25
2023-03-27T17:54:02.312Z,1.70
2023-03-27T17:56:29.994Z,1.38
2023-03-27T17:58:57.865Z,2.33
2023-03-27T18:01:25.780Z,9.88
2023-03-27T18:03:55.305Z,14.13
2023-03-27T18:06:23.113Z,12.38
2023-03-27T18:08:50.820Z,4.65
2023-03-27T18:11:18.633Z,5.40
2023-03-27T18:13:51.275Z,2.70
2023-03-27T18:16:22.023Z,1.58
2023-03-27T18:18:51.043Z,2.58
2023-03-27T18:21:20.250Z,3.03
2023-03-27T18:23:48.032Z,3.47
2023-03-27T18:26:16.995Z,3.22
2023-03-27T18:28:44.681Z,3.55
2023-03-27T18:31:13.167Z,3.47
2023-03-27T18:33:41.805Z,2.53
2023-03-27T18:36:10.750Z,1.92
2023-03-27T18:38:40.833Z,1.45
2023-03-27T18:41:08.793Z,1.25
2023-03-27T18:43:36.714Z,1.35
2023-03-27T18:46:06.312Z,1.10
2023-03-27T18:48:34.164Z,1.52
2023-03-27T18:51:02.727Z,1.27
2023-03-27T18:53:30.898Z,1.88
2023-03-27T18:56:02.187Z,1.98
2023-03-27T18:58:30.521Z,2.00
2023-03-27T19:00:58.450Z,2.53
2023-03-27T19:03:30.455Z,1.75
2023-03-27T19:06:01.079Z,2.25
2023-03-27T19:08:28.741Z,3.45
2023-03-27T19:10:57.493Z,2.38
2023-03-27T19:13:27.026Z,2.45
2023-03-27T19:15:54.786Z,2.85
2023-03-27T19:18:22.414Z,2.97
2023-03-27T19:20:50.065Z,2.25
2023-03-27T19:23:18.282Z,2.03
2023-03-27T19:25:47.481Z,1.90
2023-03-27T19:28:15.263Z,1.90
2023-03-27T19:30:45.038Z,2.10
2023-03-27T19:33:16.955Z,1.85
2023-03-27T19:35:44.802Z,1.75
2023-03-27T19:38:12.463Z,2.00
2023-03-27T19:40:40.826Z,2.45
2023-03-27T19:43:08.519Z,2.42
2023-03-27T19:45:36.184Z,2.20
2023-03-27T19:48:16.074Z,2.70
2023-03-27T19:50:43.911Z,1.95
2023-03-27T19:53:11.599Z,2.17
2023-03-27T19:55:39.348Z,2.10
2023-03-27T19:58:07.103Z,3.13
2023-03-27T20:00:38.359Z,3.05
2023-03-27T20:03:10.118Z,2.72
2023-03-27T20:05:41.480Z,2.47
2023-03-27T20:08:09.169Z,2.53
2023-03-27T20:10:37.008Z,2.90
2023-03-27T20:13:05.046Z,2.60
2023-03-27T20:15:35.611Z,3.33
2023-03-27T20:18:04.786Z,3.00
2023-03-27T20:20:35.885Z,2.33
2023-03-27T20:23:03.685Z,3.65
2023-03-27T20:25:33.755Z,2.67
2023-03-27T20:28:01.774Z,3.08
2023-03-27T20:30:29.717Z,2.83
2023-03-27T20:32:57.969Z,3.00
2023-03-27T20:35:25.972Z,2.97
2023-03-27T20:37:58.147Z,4.40
2023-03-27T20:40:26.195Z,3.55
2023-03-27T20:43:03.630Z,2.63
2023-03-27T20:45:31.861Z,2.78
2023-03-27T20:48:04.290Z,2.67
2023-03-27T20:50:35.900Z,2.60
2023-03-27T20:53:05.305Z,2.55
2023-03-27T20:55:37.516Z,2.80
2023-03-27T20:58:09.265Z,2.28
2023-03-27T21:00:36.907Z,3.72
2023-03-27T21:03:04.877Z,3.22
2023-03-27T21:05:32.698Z,2.47
2023-03-27T21:08:00.392Z,2.55
2023-03-27T21:10:31.721Z,2.28
2023-03-27T21:12:59.760Z,2.97
2023-03-27T21:15:27.419Z,2.58
2023-03-27T21:17:55.136Z,2.65
2023-03-27T21:20:22.868Z,3.33
2023-03-27T21:22:52.798Z,2.83
2023-03-27T21:25:21.287Z,2.25
2023-03-27T21:27:50.635Z,2.78
2023-03-27T21:30:18.507Z,3.13
2023-03-27T21:32:47.230Z,2.38
2023-03-27T21:35:15.018Z,2.88
2023-03-27T21:37:42.678Z,2.80
2023-03-27T21:40:10.914Z,2.17
2023-03-27T21:42:38.556Z,2.28
2023-03-27T21:45:08.618Z,3.15
2023-03-27T21:47:47.276Z,2.83
2023-03-27T21:50:16.099Z,2.55
2023-03-27T21:52:43.809Z,2.63
2023-03-27T21:55:11.749Z,2.97
2023-03-27T21:57:39.423Z,2.08
2023-03-27T22:00:09.721Z,2.35
2023-03-27T22:02:37.486Z,2.50
2023-03-27T22:05:07.881Z,2.38
2023-03-27T22:07:35.790Z,2.58
2023-03-27T22:10:05.568Z,2.33
2023-03-27T22:12:35.271Z,1.63
2023-03-27T22:15:02.948Z,2.60
2023-03-27T22:17:32.145Z,1.75
2023-03-27T22:20:00.216Z,2.70
2023-03-27T22:22:27.902Z,2.17
2023-03-27T22:24:55.698Z,2.30
2023-03-27T22:27:23.478Z,1.92
2023-03-27T22:29:53.971Z,2.10
2023-03-27T22:32:22.487Z,2.25
2023-03-27T22:34:52.673Z,1.70
2023-03-27T22:37:24.706Z,2.35
2023-03-27T22:39:52.909Z,1.98
2023-03-27T22:42:20.641Z,1.95
2023-03-27T22:44:48.337Z,2.00
2023-03-27T22:47:16.158Z,2.40
2023-03-27T22:49:43.859Z,1.85
2023-03-27T22:52:12.986Z,2.17
2023-03-27T22:54:40.677Z,1.35
2023-03-27T22:57:08.493Z,1.35
2023-03-27T22:59:36.366Z,1.58
2023-03-27T23:02:04.082Z,1.52
2023-03-27T23:04:31.851Z,2.40
2023-03-27T23:07:01.344Z,1.80
2023-03-27T23:09:33.287Z,1.70
2023-03-27T23:12:00.925Z,1.67
2023-03-27T23:14:28.725Z,1.33
2023-03-27T23:16:56.682Z,1.35
2023-03-27T23:19:24.579Z,1.63
2023-03-27T23:21:52.411Z,1.30
2023-03-27T23:24:20.207Z,1.20
2023-03-27T23:26:49.347Z,1.80
2023-03-27T23:29:17.182Z,1.27
2023-03-27T23:31:44.868Z,1.08
2023-03-27T23:34:13.744Z,1.30
2023-03-27T23:36:41.502Z,1.15
2023-03-27T23:39:09.376Z,1.33
2023-03-27T23:41:37.123Z,1.10
2023-03-27T23:44:06.250Z,1.30
2023-03-27T23:46:34.081Z,0.85
2023-03-27T23:49:01.786Z,1.38
2023-03-27T23:51:29.514Z,1.30
2023-03-27T23:53:59.952Z,1.42
2023-03-27T23:56:29.556Z,1.35
2023-03-27T23:58:57.326Z,1.05
